Time;durP1;ratioP1;P1;durP2;ratioP2;P2;SDS_P1;SDS_P2;PMS_P1;PMS_P2;Temp;Humidity;BMP_temperature;BMP_pressure;BME280_temperature;BME280_humidity;BME280_pressure;Samples;Min_cycle;Max_cycle;Signal;HPM_P1;HPM_P2
2022/01/02 00:02:00;;;;;;;14.55;10.20;;;9.20;82.50;;;;;;5000149;28;20224;-69
2022/01/02 00:04:31;;;;;;;13.18;10.30;;;9.20;82.50;;;;;;5001061;28;20205;-70
2022/01/02 00:07:04;;;;;;;16.05;10.85;;;9.20;82.40;;;;;;4995973;28;20212;-67
2022/01/02 00:09:35;;;;;;;15.35;11.85;;;9.20;82.40;;;;;;4995996;28;20227;-67
2022/01/02 00:12:09;;;;;;;16.83;12.07;;;9.20;82.30;;;;;;4999702;28;20220;-70
2022/01/02 00:14:42;;;;;;;19.33;13.32;;;9.20;82.20;;;;;;4999811;28;20200;-69
2022/01/02 00:17:12;;;;;;;17.55;12.25;;;9.20;82.40;;;;;;4954684;28;20909;-67
2022/01/02 00:19:46;;;;;;;19.20;13.40;;;9.20;82.40;;;;;;4999635;28;20266;-67
2022/01/02 00:22:16;;;;;;;19.53;14.50;;;9.30;82.30;;;;;;4993188;28;20205;-69
2022/01/02 00:24:45;;;;;;;23.10;15.30;;;9.30;82.40;;;;;;4993979;28;20456;-67
2022/01/02 00:27:15;;;;;;;34.33;20.97;;;9.40;82.30;;;;;;4996551;28;20205;-68
2022/01/02 00:29:44;;;;;;;51.50;35.00;;;9.40;82.10;;;;;;4997604;28;20472;-68
2022/01/02 00:32:13;;;;;;;51.50;35.80;;;9.40;82.00;;;;;;4995635;28;20522;-67
2022/01/02 00:34:42;;;;;;;41.33;27.30;;;9.30;82.10;;;;;;4991231;28;20221;-67
2022/01/02 00:37:10;;;;;;;44.00;27.13;;;9.40;82.10;;;;;;4996882;28;20467;-68
2022/01/02 00:39:39;;;;;;;49.53;27.57;;;9.40;82.10;;;;;;4985871;28;20239;-68
2022/01/02 00:42:10;;;;;;;50.10;29.13;;;9.40;82.10;;;;;;4997963;28;20826;-68
2022/01/02 00:44:52;;;;;;;32.43;18.93;;;9.40;82.10;;;;;;4999320;28;20464;-67
2022/01/02 00:47:32;;;;;;;24.15;15.20;;;9.40;82.00;;;;;;4992900;28;20515;-68
2022/01/02 00:50:07;;;;;;;24.23;16.23;;;9.40;81.80;;;;;;4993510;28;20236;-67
2022/01/02 00:52:36;;;;;;;24.37;14.60;;;9.30;81.70;;;;;;4998270;28;21027;-69
2022/01/02 00:55:07;;;;;;;25.55;14.23;;;9.30;81.50;;;;;;4998351;28;20547;-68
2022/01/02 00:57:37;;;;;;;23.83;14.98;;;9.20;81.70;;;;;;4993038;28;20662;-68
2022/01/02 01:00:09;;;;;;;28.20;15.80;;;9.20;81.80;;;;;;4998586;28;20288;-69
2022/01/02 01:02:44;;;;;;;23.85;13.43;;;9.10;81.80;;;;;;5000193;28;20227;-67
2022/01/02 01:05:19;;;;;;;19.88;12.15;;;9.10;81.90;;;;;;5018755;28;20212;-68
2022/01/02 01:07:49;;;;;;;16.73;10.73;;;9.10;81.70;;;;;;5002667;28;20311;-69
2022/01/02 01:10:19;;;;;;;15.27;10.90;;;9.00;81.60;;;;;;5018062;28;20205;-69
2022/01/02 01:12:50;;;;;;;15.80;10.77;;;9.00;81.70;;;;;;5017707;28;20480;-68
2022/01/02 01:15:19;;;;;;;15.65;9.50;;;9.00;81.80;;;;;;5006608;28;20207;-68
2022/01/02 01:17:49;;;;;;;13.38;8.82;;;9.00;81.80;;;;;;5021865;28;20212;-68
2022/01/02 01:20:17;;;;;;;13.98;10.27;;;9.00;81.80;;;;;;5016884;28;20210;-67
2022/01/02 01:22:46;;;;;;;12.40;8.30;;;9.00;81.80;;;;;;5019973;28;20204;-67
2022/01/02 01:25:16;;;;;;;14.57;8.77;;;9.10;81.90;;;;;;5015991;28;20699;-67
2022/01/02 01:27:45;;;;;;;11.93;8.57;;;9.10;81.80;;;;;;5013492;28;20623;-69
2022/01/02 01:30:15;;;;;;;11.32;8.27;;;9.10;81.80;;;;;;5015527;28;20261;-69
2022/01/02 01:32:44;;;;;;;10.90;8.68;;;9.10;81.70;;;;;;5020809;28;20280;-67
2022/01/02 01:35:14;;;;;;;12.05;8.20;;;9.10;81.70;;;;;;5021411;28;20215;-69
2022/01/02 01:37:44;;;;;;;9.73;6.67;;;9.10;81.60;;;;;;5014448;28;20220;-68
2022/01/02 01:40:16;;;;;;;11.33;7.20;;;9.10;81.40;;;;;;5033674;28;21127;-67
2022/01/02 01:42:56;;;;;;;15.10;8.85;;;9.10;81.30;;;;;;5021968;28;20455;-69
2022/01/02 01:45:29;;;;;;;15.15;9.90;;;9.10;81.30;;;;;;5037258;28;20704;-66
2022/01/02 01:48:02;;;;;;;14.75;8.70;;;9.00;81.30;;;;;;5016275;28;20259;-68
2022/01/02 01:50:34;;;;;;;15.07;9.80;;;9.00;81.00;;;;;;5020171;28;20577;-68
2022/01/02 01:53:03;;;;;;;11.93;8.55;;;8.90;81.00;;;;;;5020677;28;20230;-68
2022/01/02 01:55:34;;;;;;;9.82;8.18;;;8.90;81.10;;;;;;5030216;28;20227;-68
2022/01/02 01:58:04;;;;;;;13.60;7.75;;;8.80;81.10;;;;;;5017513;28;20720;-68
2022/01/02 02:00:34;;;;;;;28.60;10.07;;;8.80;81.10;;;;;;5033548;28;20236;-67
2022/01/02 02:03:07;;;;;;;12.50;8.40;;;8.80;80.80;;;;;;5016151;28;20275;-68
2022/01/02 02:05:36;;;;;;;10.82;8.02;;;8.70;80.80;;;;;;5016417;28;20299;-69
2022/01/02 02:08:05;;;;;;;15.85;8.82;;;8.70;80.80;;;;;;5015315;28;20223;-68
2022/01/02 02:10:38;;;;;;;10.40;7.78;;;8.70;80.80;;;;;;5014180;28;20207;-68
2022/01/02 02:13:09;;;;;;;11.43;7.85;;;8.60;80.40;;;;;;5015822;28;20287;-66
2022/01/02 02:15:42;;;;;;;12.45;9.23;;;8.50;80.50;;;;;;5016257;28;20234;-69
2022/01/02 02:18:11;;;;;;;16.67;9.80;;;8.40;80.60;;;;;;5016555;28;20220;-68
2022/01/02 02:20:40;;;;;;;12.00;8.90;;;8.40;80.70;;;;;;5021097;28;20204;-68
2022/01/02 02:23:28;;;;;;;15.88;11.20;;;8.40;80.60;;;;;;5013560;28;20220;-69
2022/01/02 02:25:56;;;;;;;10.85;6.95;;;8.30;80.90;;;;;;5030261;28;20216;-68
2022/01/02 02:28:27;;;;;;;12.88;7.43;;;8.30;80.70;;;;;;5034056;28;20231;-69
2022/01/02 02:30:58;;;;;;;9.27;7.38;;;8.30;80.80;;;;;;5019722;28;20774;-67
2022/01/02 02:33:26;;;;;;;10.07;7.30;;;8.30;80.90;;;;;;5021527;28;20211;-70
2022/01/02 02:35:56;;;;;;;8.88;6.45;;;8.30;80.80;;;;;;5016654;28;20209;-69
2022/01/02 02:38:25;;;;;;;8.05;6.30;;;8.30;80.80;;;;;;5016668;28;20292;-68
2022/01/02 02:40:57;;;;;;;8.98;6.65;;;8.30;80.70;;;;;;5018990;28;20212;-68
2022/01/02 02:43:31;;;;;;;8.85;6.30;;;8.30;80.60;;;;;;5018343;28;20230;-69
2022/01/02 02:49:01;;;;;;;7.43;6.20;;;8.30;80.60;;;;;;5015228;28;20318;-68
2022/01/02 02:51:40;;;;;;;8.40;6.30;;;8.30;80.60;;;;;;5018867;28;20207;-69
2022/01/02 02:54:11;;;;;;;7.03;5.68;;;8.30;80.40;;;;;;5036039;28;20315;-69
2022/01/02 02:56:44;;;;;;;13.93;7.50;;;8.20;80.30;;;;;;5020674;28;20199;-68
2022/01/02 02:59:13;;;;;;;10.48;6.38;;;8.10;80.20;;;;;;5017161;28;20231;-69
2022/01/02 03:01:41;;;;;;;30.38;6.70;;;8.10;80.10;;;;;;5013669;28;20254;-69
2022/01/02 03:04:10;;;;;;;11.05;7.60;;;8.10;80.20;;;;;;5016914;28;20195;-67
2022/01/02 03:06:40;;;;;;;9.63;6.57;;;8.00;79.90;;;;;;5019384;28;20306;-68
2022/01/02 03:09:09;;;;;;;7.18;6.00;;;7.90;80.10;;;;;;5032657;28;20682;-70
2022/01/02 03:11:41;;;;;;;8.80;7.03;;;7.90;80.30;;;;;;5030579;28;20221;-69
2022/01/02 03:14:12;;;;;;;8.90;6.72;;;7.90;80.40;;;;;;5013232;28;20289;-68
2022/01/02 03:16:42;;;;;;;6.47;4.60;;;7.90;80.50;;;;;;5017842;28;20750;-70
2022/01/02 03:19:11;;;;;;;7.90;5.65;;;7.90;80.40;;;;;;5021822;28;20313;-68
2022/01/02 03:21:40;;;;;;;10.13;6.72;;;8.00;80.30;;;;;;5022341;28;20241;-69
2022/01/02 03:24:08;;;;;;;10.40;7.40;;;7.90;80.20;;;;;;5020372;28;20202;-68
2022/01/02 03:26:36;;;;;;;9.15;6.40;;;7.90;80.00;;;;;;5021861;28;20572;-69
2022/01/02 03:29:04;;;;;;;8.77;6.40;;;7.90;80.00;;;;;;5015826;28;20956;-67
2022/01/02 03:31:33;;;;;;;9.35;6.57;;;7.90;79.90;;;;;;5017774;28;20758;-69
2022/01/02 03:34:02;;;;;;;9.30;6.18;;;7.80;79.70;;;;;;5019222;28;20210;-69
2022/01/02 03:36:30;;;;;;;10.73;6.80;;;7.70;79.80;;;;;;5019853;28;20202;-67
2022/01/02 03:39:00;;;;;;;10.25;7.00;;;7.70;79.90;;;;;;5018941;28;20230;-67
2022/01/02 03:41:28;;;;;;;10.15;7.55;;;7.60;79.70;;;;;;5020678;28;20221;-69
2022/01/02 03:43:56;;;;;;;9.23;7.03;;;7.40;79.70;;;;;;5017513;28;20261;-68
2022/01/02 03:46:25;;;;;;;9.57;7.63;;;7.40;80.20;;;;;;5014188;28;20225;-68
2022/01/02 03:48:53;;;;;;;10.50;6.20;;;7.50;80.50;;;;;;5012717;28;20227;-69
2022/01/02 03:51:21;;;;;;;9.60;7.22;;;7.50;80.60;;;;;;5009874;28;20353;-68
2022/01/02 03:53:49;;;;;;;8.10;6.25;;;7.60;80.60;;;;;;5013770;28;20234;-68
2022/01/02 03:56:19;;;;;;;8.32;6.53;;;7.70;80.50;;;;;;5019221;28;20212;-68
2022/01/02 03:58:47;;;;;;;9.93;6.00;;;7.70;80.50;;;;;;5030422;28;20222;-68
2022/01/02 04:01:19;;;;;;;7.50;5.20;;;7.80;80.40;;;;;;5020680;28;20231;-68
2022/01/02 04:03:47;;;;;;;7.55;5.38;;;7.80;80.20;;;;;;5018467;28;20228;-70
2022/01/02 04:06:15;;;;;;;7.32;5.60;;;7.80;80.10;;;;;;5012319;28;20202;-70
2022/01/02 04:08:43;;;;;;;7.43;5.88;;;7.80;80.00;;;;;;5012484;28;20230;-69
2022/01/02 04:11:11;;;;;;;7.35;5.85;;;7.70;80.00;;;;;;5033266;28;20206;-69
2022/01/02 04:13:40;;;;;;;9.50;6.50;;;7.70;79.80;;;;;;5015025;28;20207;-70
2022/01/02 04:16:08;;;;;;;8.65;6.03;;;7.70;79.90;;;;;;5017598;28;20325;-70
2022/01/02 04:18:36;;;;;;;8.95;6.38;;;7.70;79.80;;;;;;5018738;28;20222;-69
2022/01/02 04:21:04;;;;;;;8.02;6.35;;;7.70;79.80;;;;;;5018409;28;20226;-70
2022/01/02 04:23:33;;;;;;;10.88;7.35;;;7.60;79.70;;;;;;5033765;28;20293;-69
2022/01/02 04:26:01;;;;;;;10.75;7.28;;;7.60;79.60;;;;;;5019909;28;20198;-68
2022/01/02 04:28:29;;;;;;;14.60;8.57;;;7.50;79.70;;;;;;5035978;28;20225;-69
2022/01/02 04:30:59;;;;;;;12.98;9.10;;;7.50;79.80;;;;;;5021494;28;20236;-66
2022/01/02 04:33:30;;;;;;;27.08;14.75;;;7.50;79.80;;;;;;5036015;28;20206;-67
2022/01/02 04:35:58;;;;;;;26.15;15.85;;;7.50;79.90;;;;;;5019281;28;20292;-68
2022/01/02 04:38:26;;;;;;;26.33;14.70;;;7.50;80.10;;;;;;5020034;28;20781;-67
2022/01/02 04:40:54;;;;;;;20.58;12.60;;;7.50;80.20;;;;;;5022102;28;20293;-67
2022/01/02 04:43:23;;;;;;;16.48;9.30;;;7.50;80.20;;;;;;5024790;28;20209;-69
2022/01/02 04:45:52;;;;;;;8.98;6.53;;;7.60;80.10;;;;;;5017249;28;20230;-68
2022/01/02 04:48:22;;;;;;;7.70;5.80;;;7.50;80.00;;;;;;5024774;28;20226;-69
2022/01/02 04:50:50;;;;;;;6.88;4.95;;;7.60;80.10;;;;;;5021215;28;20281;-68
2022/01/02 04:53:21;;;;;;;6.07;4.35;;;7.60;80.20;;;;;;5022795;28;20963;-68
2022/01/02 04:55:52;;;;;;;7.35;5.53;;;7.60;80.10;;;;;;5022067;28;20217;-68
2022/01/02 04:58:37;;;;;;;12.30;5.10;;;7.60;80.10;;;;;;5020008;28;21892;-68
2022/01/02 05:01:17;;;;;;;7.20;5.20;;;7.60;80.00;;;;;;5018436;28;20265;-68
2022/01/02 05:03:57;;;;;;;5.68;4.32;;;7.50;80.10;;;;;;5021134;28;20197;-69
2022/01/02 05:06:27;;;;;;;5.57;4.25;;;7.50;80.30;;;;;;5023029;28;20193;-67
2022/01/02 05:08:59;;;;;;;5.55;4.25;;;7.60;80.30;;;;;;5037310;28;20780;-69
2022/01/02 05:11:35;;;;;;;6.53;4.70;;;7.60;80.30;;;;;;5020892;28;21376;-68
2022/01/02 05:14:05;;;;;;;5.88;4.40;;;7.60;80.20;;;;;;5018693;28;20198;-67
2022/01/02 05:16:33;;;;;;;7.30;5.15;;;7.60;80.00;;;;;;5021094;28;20230;-67
2022/01/02 05:19:02;;;;;;;7.05;5.10;;;7.60;80.00;;;;;;5019680;28;20222;-66
2022/01/02 05:21:32;;;;;;;6.20;4.55;;;7.60;80.10;;;;;;5020469;28;20226;-69
2022/01/02 05:24:01;;;;;;;5.57;4.45;;;7.60;80.10;;;;;;5024750;28;20618;-68
2022/01/02 05:26:29;;;;;;;5.43;4.60;;;7.60;80.20;;;;;;5019899;28;20212;-69
2022/01/02 05:28:58;;;;;;;7.60;5.32;;;7.60;80.20;;;;;;5018149;28;20231;-69
2022/01/02 05:31:26;;;;;;;9.93;6.75;;;7.60;80.20;;;;;;5019227;28;20722;-68
2022/01/02 05:33:54;;;;;;;8.50;6.00;;;7.60;80.10;;;;;;5016045;28;20243;-67
2022/01/02 05:36:24;;;;;;;8.27;5.80;;;7.60;80.20;;;;;;5019426;28;20210;-69
2022/01/02 05:38:53;;;;;;;7.88;5.03;;;7.70;80.20;;;;;;5022098;28;20238;-69
2022/01/02 05:41:21;;;;;;;6.13;4.85;;;7.70;80.00;;;;;;5024446;28;20783;-67
2022/01/02 05:43:49;;;;;;;7.40;5.22;;;7.60;80.00;;;;;;5021190;28;20801;-70
2022/01/02 05:46:17;;;;;;;6.07;4.18;;;7.70;80.00;;;;;;5024610;28;20240;-69
2022/01/02 05:48:46;;;;;;;7.25;4.90;;;7.70;79.90;;;;;;5019361;28;20727;-68
2022/01/02 05:51:14;;;;;;;8.10;5.55;;;7.60;79.90;;;;;;5019813;28;20201;-69
2022/01/02 05:53:44;;;;;;;7.70;6.00;;;7.60;79.90;;;;;;5021551;28;20210;-69
2022/01/02 05:56:12;;;;;;;9.80;6.90;;;7.60;79.90;;;;;;5034342;28;20223;-69
2022/01/02 05:58:40;;;;;;;8.25;6.40;;;7.60;80.10;;;;;;5023174;28;20265;-69
2022/01/02 06:01:08;;;;;;;8.45;5.65;;;7.60;80.10;;;;;;5019408;28;20726;-69
2022/01/02 06:03:37;;;;;;;7.15;5.10;;;7.60;80.20;;;;;;5019245;28;20634;-70
2022/01/02 06:06:05;;;;;;;8.23;5.13;;;7.60;80.10;;;;;;5020937;28;20261;-68
2022/01/02 06:08:33;;;;;;;6.75;4.80;;;7.70;80.00;;;;;;5019832;28;20226;-68
2022/01/02 06:11:03;;;;;;;7.38;5.57;;;7.60;80.00;;;;;;5023294;28;20269;-67
2022/01/02 06:13:31;;;;;;;6.90;4.55;;;7.60;80.00;;;;;;5022658;28;21002;-68
2022/01/02 06:15:59;;;;;;;5.70;4.25;;;7.60;80.10;;;;;;5019624;28;20237;-69
2022/01/02 06:18:28;;;;;;;6.40;4.70;;;7.60;80.10;;;;;;5017941;28;20317;-69
2022/01/02 06:20:56;;;;;;;6.38;4.18;;;7.70;80.00;;;;;;5020168;28;20208;-69
2022/01/02 06:23:24;;;;;;;6.32;5.03;;;7.70;80.00;;;;;;5019923;28;20920;-69
2022/01/02 06:25:53;;;;;;;7.13;5.40;;;7.60;79.80;;;;;;5018170;28;20199;-69
2022/01/02 06:28:22;;;;;;;7.43;5.53;;;7.60;79.70;;;;;;5012437;28;20264;-68
2022/01/02 06:30:50;;;;;;;7.45;4.85;;;7.50;79.70;;;;;;5020862;28;20258;-71
2022/01/02 06:33:18;;;;;;;6.70;5.00;;;7.40;79.70;;;;;;5018505;28;20206;-72
2022/01/02 06:35:46;;;;;;;8.88;6.18;;;7.40;80.00;;;;;;5033635;28;20582;-68
2022/01/02 06:38:16;;;;;;;7.60;5.50;;;7.50;80.00;;;;;;5019310;28;20245;-67
2022/01/02 06:40:48;;;;;;;5.90;4.97;;;7.50;80.10;;;;;;5019992;28;20735;-68
2022/01/02 06:43:17;;;;;;;6.47;4.95;;;7.50;80.20;;;;;;5018224;28;20206;-69
2022/01/02 06:45:46;;;;;;;7.57;5.47;;;7.50;80.10;;;;;;5020404;28;20797;-66
2022/01/02 06:48:14;;;;;;;7.45;5.88;;;7.50;80.20;;;;;;5021810;28;20257;-67
2022/01/02 06:50:42;;;;;;;8.50;6.35;;;7.50;80.20;;;;;;5032458;28;20203;-67
2022/01/02 06:53:11;;;;;;;8.68;5.97;;;7.50;80.30;;;;;;5034793;28;20203;-69
2022/01/02 06:55:39;;;;;;;9.48;6.55;;;7.60;80.30;;;;;;5017500;28;20317;-66
2022/01/02 06:58:08;;;;;;;10.60;7.20;;;7.60;80.30;;;;;;5032315;28;20602;-69
2022/01/02 07:00:37;;;;;;;9.02;6.43;;;7.60;80.00;;;;;;5029520;28;20289;-68
2022/01/02 07:03:07;;;;;;;10.25;7.28;;;7.50;80.00;;;;;;5018885;28;20209;-69
2022/01/02 07:05:36;;;;;;;10.05;6.68;;;7.50;80.20;;;;;;5019879;28;20208;-70
2022/01/02 07:08:05;;;;;;;11.93;7.63;;;7.50;80.20;;;;;;5033679;28;20746;-67
2022/01/02 07:10:34;;;;;;;11.90;8.57;;;7.50;80.40;;;;;;5020620;28;20205;-70
2022/01/02 07:13:02;;;;;;;9.85;7.80;;;7.50;80.50;;;;;;5016021;28;20215;-69
2022/01/02 07:15:30;;;;;;;9.90;7.18;;;7.60;80.60;;;;;;5017649;28;20257;-67
2022/01/02 07:17:58;;;;;;;8.23;6.75;;;7.60;80.50;;;;;;5019353;28;20213;-67
2022/01/02 07:20:27;;;;;;;8.05;5.90;;;7.60;80.50;;;;;;5020049;28;20206;-68
2022/01/02 07:22:55;;;;;;;8.68;6.72;;;7.60;80.50;;;;;;5017949;28;20729;-70
2022/01/02 07:25:23;;;;;;;8.98;6.82;;;7.70;80.50;;;;;;5020088;28;20982;-68
2022/01/02 07:27:51;;;;;;;8.55;6.90;;;7.70;80.40;;;;;;5015623;28;20233;-68
2022/01/02 07:30:19;;;;;;;9.50;7.22;;;7.70;80.30;;;;;;5019690;28;20201;-68
2022/01/02 07:32:47;;;;;;;10.13;7.60;;;7.70;80.40;;;;;;5019187;28;20208;-69
2022/01/02 07:35:15;;;;;;;9.20;6.78;;;7.70;80.30;;;;;;5014230;28;20230;-69
2022/01/02 07:37:44;;;;;;;7.38;5.75;;;7.70;80.20;;;;;;5020745;28;20597;-69
2022/01/02 07:40:12;;;;;;;9.68;6.30;;;7.70;80.20;;;;;;5021895;28;20288;-70
2022/01/02 07:42:40;;;;;;;9.50;5.68;;;7.70;80.20;;;;;;5019224;28;20202;-71
2022/01/02 07:45:15;;;;;;;9.80;6.03;;;7.70;80.20;;;;;;5014676;28;20973;-70
2022/01/02 07:47:43;;;;;;;10.80;5.82;;;7.70;80.30;;;;;;5020918;28;20259;-67
2022/01/02 07:50:11;;;;;;;8.30;6.03;;;7.70;80.30;;;;;;5022474;28;20203;-68
2022/01/02 07:52:39;;;;;;;7.72;5.65;;;7.70;80.30;;;;;;5018182;28;20256;-68
2022/01/02 07:55:09;;;;;;;6.07;5.07;;;7.70;80.30;;;;;;5022272;28;20216;-67
2022/01/02 07:57:37;;;;;;;8.18;5.53;;;7.70;80.30;;;;;;5019237;28;20210;-70
2022/01/02 08:00:09;;;;;;;8.93;6.40;;;7.70;80.30;;;;;;5020722;28;20230;-70
2022/01/02 08:02:40;;;;;;;9.10;5.85;;;7.60;80.30;;;;;;5021231;28;20894;-68
2022/01/02 08:05:10;;;;;;;8.95;5.88;;;7.60;80.30;;;;;;5018213;28;20205;-67
2022/01/02 08:07:39;;;;;;;11.10;5.88;;;7.60;80.30;;;;;;5023231;28;20790;-67
2022/01/02 08:10:09;;;;;;;8.00;5.88;;;7.60;80.30;;;;;;5023017;28;20230;-69
2022/01/02 08:12:37;;;;;;;8.30;6.00;;;7.60;80.30;;;;;;5018666;28;20229;-68
2022/01/02 08:15:07;;;;;;;6.95;4.95;;;7.70;80.30;;;;;;5021848;28;20213;-68
2022/01/02 08:17:35;;;;;;;7.53;5.78;;;7.70;80.40;;;;;;5020954;28;20203;-69
2022/01/02 08:20:03;;;;;;;8.95;6.03;;;7.70;80.40;;;;;;5023606;28;20226;-71
2022/01/02 08:22:31;;;;;;;7.07;5.43;;;7.70;80.20;;;;;;5020654;28;20220;-69
2022/01/02 08:24:59;;;;;;;6.32;4.80;;;7.70;80.40;;;;;;5020419;28;20207;-69
2022/01/02 08:27:29;;;;;;;7.18;5.75;;;7.70;80.30;;;;;;5022978;28;20195;-70
2022/01/02 08:29:57;;;;;;;14.93;10.80;;;7.70;80.20;;;;;;5019411;28;20248;-70
2022/01/02 08:32:25;;;;;;;13.45;10.50;;;7.70;80.30;;;;;;5021646;28;20222;-70
2022/01/02 08:34:53;;;;;;;13.07;9.43;;;7.70;80.30;;;;;;5039979;28;20226;-69
2022/01/02 08:37:21;;;;;;;11.65;9.57;;;7.70;80.30;;;;;;5022872;28;20235;-71
2022/01/02 08:39:49;;;;;;;13.70;10.80;;;7.70;80.50;;;;;;5021178;28;20226;-70
2022/01/02 08:42:17;;;;;;;13.45;10.27;;;7.70;80.40;;;;;;5020292;28;20941;-70
2022/01/02 08:44:47;;;;;;;11.85;9.25;;;7.70;80.50;;;;;;5021265;28;20227;-69
2022/01/02 08:47:15;;;;;;;13.18;10.00;;;7.80;80.80;;;;;;5021882;28;20227;-69
2022/01/02 08:49:43;;;;;;;11.38;8.55;;;7.90;80.80;;;;;;5021914;28;20235;-69
2022/01/02 08:52:11;;;;;;;9.77;6.57;;;7.90;80.60;;;;;;5023860;28;20659;-69
2022/01/02 08:54:39;;;;;;;6.30;5.25;;;7.90;80.70;;;;;;5019916;28;20211;-70
2022/01/02 08:57:08;;;;;;;8.90;5.93;;;7.90;80.80;;;;;;5018706;28;20767;-70
2022/01/02 08:59:37;;;;;;;9.68;6.32;;;8.00;80.80;;;;;;5023246;28;20253;-70
2022/01/02 09:02:06;;;;;;;8.48;6.38;;;8.00;80.80;;;;;;5019957;28;20237;-70
2022/01/02 09:04:34;;;;;;;6.43;5.07;;;8.10;80.90;;;;;;5022873;28;20211;-70
2022/01/02 09:07:02;;;;;;;7.05;5.30;;;8.10;80.90;;;;;;5036030;28;20211;-70
2022/01/02 09:09:30;;;;;;;7.50;5.78;;;8.10;80.90;;;;;;5019439;28;20228;-71
2022/01/02 09:11:59;;;;;;;7.72;5.70;;;8.10;81.00;;;;;;5016623;28;20212;-70
2022/01/02 09:14:30;;;;;;;6.72;5.25;;;8.20;81.00;;;;;;5022733;28;20285;-71
2022/01/02 09:16:57;;;;;;;7.20;5.55;;;8.20;81.10;;;;;;5016737;28;20239;-70
2022/01/02 09:19:27;;;;;;;6.82;5.60;;;8.30;81.10;;;;;;5035373;28;20758;-69
2022/01/02 09:21:55;;;;;;;7.05;5.32;;;8.30;81.20;;;;;;5020245;28;20194;-70
2022/01/02 09:24:23;;;;;;;7.80;5.65;;;8.30;81.20;;;;;;5024030;28;20827;-70
2022/01/02 09:26:51;;;;;;;7.80;6.00;;;8.40;81.10;;;;;;5020967;28;20244;-71
2022/01/02 09:29:19;;;;;;;9.45;5.55;;;8.40;81.30;;;;;;5022328;28;20306;-71
2022/01/02 09:31:51;;;;;;;6.97;5.35;;;8.40;81.30;;;;;;5019456;28;20231;-70
2022/01/02 09:34:18;;;;;;;7.82;5.15;;;8.50;81.40;;;;;;5022908;28;20199;-69
2022/01/02 09:36:48;;;;;;;7.63;5.93;;;8.50;81.40;;;;;;5018580;28;20214;-70
2022/01/02 09:39:16;;;;;;;6.97;4.85;;;8.50;81.30;;;;;;5021999;28;20225;-69
2022/01/02 09:41:44;;;;;;;8.05;6.10;;;8.50;81.30;;;;;;5019506;28;20224;-69
2022/01/02 09:44:12;;;;;;;9.27;7.45;;;8.50;81.50;;;;;;5021149;28;20856;-70
2022/01/02 09:46:41;;;;;;;43.15;27.02;;;8.50;81.50;;;;;;5018172;28;20983;-69
2022/01/02 09:49:10;;;;;;;31.25;21.58;;;8.50;81.50;;;;;;5019896;28;21198;-70
2022/01/02 09:51:37;;;;;;;26.52;20.00;;;8.50;81.40;;;;;;5021146;28;20571;-70
2022/01/02 09:54:10;;;;;;;29.13;19.65;;;8.50;81.30;;;;;;5021916;28;20683;-70
2022/01/02 09:56:38;;;;;;;17.85;14.00;;;8.40;81.70;;;;;;5023263;28;20210;-71
2022/01/02 09:59:06;;;;;;;14.15;11.70;;;8.40;81.90;;;;;;5022707;28;20675;-71
2022/01/02 10:01:36;;;;;;;15.10;11.82;;;8.50;82.00;;;;;;5021893;28;20310;-70
2022/01/02 10:04:04;;;;;;;15.32;11.52;;;8.50;82.20;;;;;;5023028;28;20207;-70
2022/01/02 10:06:40;;;;;;;14.73;11.30;;;8.50;82.30;;;;;;5023533;28;20211;-70
2022/01/02 10:09:17;;;;;;;14.50;10.07;;;8.60;82.20;;;;;;5023063;28;20573;-69
2022/01/02 10:11:45;;;;;;;24.45;16.70;;;8.70;82.20;;;;;;5023219;28;20212;-70
2022/01/02 10:14:14;;;;;;;27.97;18.57;;;8.70;82.10;;;;;;5022869;28;20326;-69
2022/01/02 10:16:43;;;;;;;22.92;14.95;;;8.70;82.10;;;;;;5020239;28;21049;-69
2022/01/02 10:19:19;;;;;;;17.70;11.53;;;8.70;82.30;;;;;;5023734;28;20247;-70
2022/01/02 10:21:55;;;;;;;13.13;9.80;;;8.80;82.40;;;;;;5023115;28;20848;-68
2022/01/02 10:24:27;;;;;;;11.32;8.88;;;8.80;82.50;;;;;;5021030;28;20901;-69
2022/01/02 10:27:11;;;;;;;12.18;8.52;;;8.90;82.50;;;;;;5020518;28;20195;-70
2022/01/02 10:29:41;;;;;;;11.32;8.18;;;8.90;82.60;;;;;;5018550;28;20221;-70
2022/01/02 10:32:27;;;;;;;11.33;7.97;;;9.00;82.60;;;;;;5019076;28;20246;-68
2022/01/02 10:35:10;;;;;;;13.10;9.40;;;9.00;82.80;;;;;;5020407;28;21131;-69
2022/01/02 10:37:39;;;;;;;14.63;12.48;;;9.00;82.90;;;;;;5020231;28;20494;-68
2022/01/02 10:40:29;;;;;;;15.87;10.93;;;9.10;83.00;;;;;;5017582;28;21000;-70
2022/01/02 10:42:59;;;;;;;37.63;27.07;;;9.10;83.20;;;;;;5020852;28;20473;-70
2022/01/02 10:45:39;;;;;;;30.13;18.50;;;9.20;83.20;;;;;;5019950;28;20475;-70
2022/01/02 10:48:10;;;;;;;27.00;18.43;;;9.20;83.40;;;;;;5016668;28;20243;-70
2022/01/02 10:50:39;;;;;;;25.90;18.63;;;9.30;83.50;;;;;;5018678;28;20470;-70
2022/01/02 10:53:17;;;;;;;18.97;14.30;;;9.40;83.50;;;;;;5019954;28;20963;-70
2022/01/02 10:55:47;;;;;;;16.73;10.93;;;9.50;83.60;;;;;;5019870;28;20447;-70
2022/01/02 10:58:16;;;;;;;12.53;8.13;;;9.50;83.50;;;;;;5016818;28;21286;-71
2022/01/02 11:00:44;;;;;;;9.50;7.93;;;9.60;83.50;;;;;;5016015;28;20476;-71
2022/01/02 11:03:13;;;;;;;10.40;7.67;;;9.60;83.50;;;;;;5021600;28;21810;-70
2022/01/02 11:05:41;;;;;;;10.63;7.20;;;9.60;83.50;;;;;;5020591;28;20456;-70
2022/01/02 11:08:12;;;;;;;9.20;7.40;;;9.60;83.50;;;;;;5021446;28;20517;-70
2022/01/02 11:10:41;;;;;;;9.27;6.70;;;9.60;83.60;;;;;;5020640;28;20483;-70
2022/01/02 11:13:10;;;;;;;9.53;7.63;;;9.70;83.60;;;;;;5022654;28;20461;-70
2022/01/02 11:15:38;;;;;;;10.87;7.20;;;9.70;83.60;;;;;;5023582;28;20520;-69
2022/01/02 11:18:07;;;;;;;8.17;6.63;;;9.70;83.60;;;;;;5018562;28;20542;-69
2022/01/02 11:20:35;;;;;;;9.23;7.07;;;9.70;83.60;;;;;;5018289;28;20462;-69
2022/01/02 11:23:13;;;;;;;10.00;7.63;;;9.70;83.60;;;;;;5016594;28;20836;-71
2022/01/02 11:25:46;;;;;;;10.00;7.33;;;9.70;83.50;;;;;;5019142;28;20460;-69
2022/01/02 11:28:26;;;;;;;10.10;7.30;;;9.70;83.60;;;;;;5021143;28;20466;-71
2022/01/02 11:30:55;;;;;;;9.40;7.53;;;9.70;83.50;;;;;;5013154;28;20536;-71
2022/01/02 11:33:30;;;;;;;9.83;7.03;;;9.60;83.50;;;;;;5017466;28;20470;-69
2022/01/02 11:36:00;;;;;;;10.77;8.20;;;9.60;83.60;;;;;;5020375;28;20988;-69
2022/01/02 11:38:43;;;;;;;9.57;7.60;;;9.70;83.60;;;;;;5020584;28;20503;-69
2022/01/02 11:41:16;;;;;;;12.63;9.33;;;9.60;83.60;;;;;;5019984;28;20501;-68
2022/01/02 11:43:56;;;;;;;10.97;8.97;;;9.60;83.70;;;;;;5019395;28;20980;-69
2022/01/02 11:46:27;;;;;;;16.93;13.10;;;9.70;83.80;;;;;;5020666;28;20494;-67
2022/01/02 11:49:16;;;;;;;14.00;10.10;;;9.70;83.80;;;;;;5022106;28;20475;-70
2022/01/02 11:52:12;;;;;;;25.90;18.70;;;9.70;83.70;;;;;;5019504;28;20472;-70
2022/01/02 11:54:48;;;;;;;27.17;21.00;;;9.70;83.80;;;;;;5006447;28;20481;-69
2022/01/02 11:57:53;;;;;;;17.20;13.20;;;9.60;83.90;;;;;;5017483;28;20458;-70
2022/01/02 12:00:44;;;;;;;9.73;6.80;;;9.70;83.90;;;;;;5018171;28;20473;-70
2022/01/02 12:03:50;;;;;;;8.57;6.20;;;9.70;84.00;;;;;;4972724;28;20569;-70
2022/01/02 12:06:24;;;;;;;8.43;5.40;;;9.80;84.20;;;;;;5024106;28;20475;-69
2022/01/02 12:08:54;;;;;;;7.20;4.97;;;9.80;84.20;;;;;;5017900;28;21019;-69
2022/01/02 12:11:43;;;;;;;7.60;4.90;;;9.90;84.30;;;;;;5018372;28;20963;-69
2022/01/02 12:14:18;;;;;;;6.53;4.47;;;10.00;84.40;;;;;;5022415;28;20471;-70
2022/01/02 12:16:57;;;;;;;5.27;3.83;;;10.10;84.40;;;;;;5017345;28;20494;-69
2022/01/02 12:19:26;;;;;;;9.77;4.33;;;10.10;84.30;;;;;;5018948;28;20545;-70
2022/01/02 12:22:14;;;;;;;5.80;4.00;;;10.20;84.10;;;;;;5019802;28;21439;-69
2022/01/02 12:24:44;;;;;;;5.80;4.20;;;10.30;84.10;;;;;;5033187;28;20468;-69
2022/01/02 12:27:14;;;;;;;5.33;3.67;;;10.30;84.10;;;;;;5018585;28;20844;-69
2022/01/02 12:29:43;;;;;;;5.87;3.80;;;10.40;83.90;;;;;;5019473;28;20470;-68
2022/01/02 12:32:15;;;;;;;5.63;3.57;;;10.50;83.80;;;;;;5020027;28;20472;-69
2022/01/02 12:34:43;;;;;;;5.70;3.20;;;10.50;83.70;;;;;;5023467;28;20461;-69
2022/01/02 12:37:11;;;;;;;5.40;3.47;;;10.60;83.50;;;;;;5021853;28;20566;-69
2022/01/02 12:39:43;;;;;;;4.90;3.13;;;10.60;83.40;;;;;;5022281;28;21000;-69
2022/01/02 12:42:14;;;;;;;6.80;3.37;;;10.60;83.30;;;;;;5021384;28;20518;-69
2022/01/02 12:44:45;;;;;;;6.43;3.17;;;10.70;83.20;;;;;;5019280;28;20511;-69
2022/01/02 12:47:27;;;;;;;5.07;3.13;;;10.70;83.20;;;;;;5023638;28;20473;-69
2022/01/02 12:49:57;;;;;;;4.90;2.83;;;10.80;82.90;;;;;;5020490;28;20484;-69
2022/01/02 12:52:26;;;;;;;5.63;2.90;;;10.80;82.90;;;;;;5022446;28;20464;-69
2022/01/02 12:54:54;;;;;;;4.87;2.90;;;10.80;82.70;;;;;;5023151;28;20461;-70
2022/01/02 12:57:23;;;;;;;4.33;2.30;;;10.90;82.60;;;;;;5023863;28;20463;-70
2022/01/02 12:59:56;;;;;;;4.60;2.70;;;10.90;82.10;;;;;;5020730;28;20481;-70
2022/01/02 13:02:25;;;;;;;11.33;2.80;;;11.00;82.10;;;;;;5016356;28;20485;-70
2022/01/02 13:04:56;;;;;;;5.10;2.63;;;11.10;82.10;;;;;;5020991;28;20489;-69
2022/01/02 13:07:26;;;;;;;5.20;2.63;;;11.20;81.80;;;;;;5024594;28;20457;-70
2022/01/02 13:09:56;;;;;;;4.93;2.63;;;11.20;81.50;;;;;;5030421;28;20483;-70
2022/01/02 13:12:26;;;;;;;3.63;2.40;;;11.30;81.10;;;;;;5021212;28;20983;-69